Time;durP1;ratioP1;P1;durP2;ratioP2;P2;SDS_P1;SDS_P2;PMS_P1;PMS_P2;Temp;Humidity;BMP_temperature;BMP_pressure;BME280_temperature;BME280_humidity;BME280_pressure;Samples;Min_cycle;Max_cycle;Signal;HPM_P1;HPM_P2
2022/11/15 00:01:53;;;;;;;0.98;0.98;;;;;;;;;;5093660;28;20034;-79
2022/11/15 00:04:19;;;;;;;1.10;1.10;;;;;;;;;;5070761;28;20028;-79
2022/11/15 00:06:45;;;;;;;1.02;1.02;;;;;;;;;;5088732;28;20492;-80
2022/11/15 00:09:11;;;;;;;0.88;0.88;;;;;;;;;;5093963;28;20032;-78
2022/11/15 00:11:37;;;;;;;1.10;1.10;;;;;;;;;;5089707;28;20052;-76
2022/11/15 00:14:03;;;;;;;1.13;1.10;;;;;;;;;;5087056;28;20024;-79
2022/11/15 00:16:30;;;;;;;1.17;1.10;;;;;;;;;;5093582;28;20027;-77
2022/11/15 00:18:57;;;;;;;1.40;1.30;;;;;;;;;;5089427;28;20048;-77
2022/11/15 00:21:23;;;;;;;1.00;1.00;;;;;;;;;;5094207;28;20031;-77
2022/11/15 00:23:49;;;;;;;0.95;0.95;;;;;;;;;;5077369;28;20043;-78
2022/11/15 00:26:16;;;;;;;1.00;1.00;;;;;;;;;;5094810;28;20382;-77
2022/11/15 00:28:42;;;;;;;1.13;1.13;;;;;;;;;;5089847;28;20020;-78
2022/11/15 00:31:10;;;;;;;1.27;1.20;;;;;;;;;;5091573;28;20047;-77
2022/11/15 00:33:36;;;;;;;0.90;0.90;;;;;;;;;;5088388;28;20023;-77
2022/11/15 00:36:04;;;;;;;1.00;1.00;;;;;;;;;;5090370;28;20087;-77
2022/11/15 00:38:35;;;;;;;1.00;1.00;;;;;;;;;;5085234;28;20073;-77
2022/11/15 00:41:01;;;;;;;1.55;1.10;;;;;;;;;;5088682;28;20038;-78
2022/11/15 00:43:28;;;;;;;1.30;1.30;;;;;;;;;;5073173;28;20032;-77
2022/11/15 00:45:54;;;;;;;2.22;1.00;;;;;;;;;;5088140;28;20500;-77
2022/11/15 00:48:20;;;;;;;1.00;1.00;;;;;;;;;;5067935;28;20040;-77
2022/11/15 00:50:46;;;;;;;0.90;0.90;;;;;;;;;;5081580;28;20035;-77
2022/11/15 00:53:12;;;;;;;0.90;0.90;;;;;;;;;;5083437;28;20028;-77
2022/11/15 00:55:38;;;;;;;1.00;1.00;;;;;;;;;;5086839;28;20020;-77
2022/11/15 00:58:04;;;;;;;0.90;0.90;;;;;;;;;;5088301;28;20030;-77
2022/11/15 01:00:30;;;;;;;1.00;1.00;;;;;;;;;;5093650;28;20035;-77
2022/11/15 01:02:56;;;;;;;0.95;0.95;;;;;;;;;;5090889;28;20051;-76
2022/11/15 01:05:22;;;;;;;0.90;0.90;;;;;;;;;;5071223;28;20591;-77
2022/11/15 01:07:52;;;;;;;0.90;0.90;;;;;;;;;;5095203;28;20337;-76
2022/11/15 01:10:19;;;;;;;0.90;0.90;;;;;;;;;;5084369;28;20024;-77
2022/11/15 01:12:45;;;;;;;1.00;1.00;;;;;;;;;;5072190;28;20036;-78
2022/11/15 01:15:11;;;;;;;0.80;0.80;;;;;;;;;;5087586;28;20032;-76
2022/11/15 01:17:37;;;;;;;0.93;0.93;;;;;;;;;;5095718;28;20028;-77
2022/11/15 01:20:03;;;;;;;0.80;0.80;;;;;;;;;;5087693;28;20133;-77
2022/11/15 01:22:29;;;;;;;0.80;0.80;;;;;;;;;;5072980;28;20035;-77
2022/11/15 01:24:55;;;;;;;0.90;0.90;;;;;;;;;;5090707;28;20397;-76
2022/11/15 01:27:21;;;;;;;1.00;1.00;;;;;;;;;;5092176;28;20028;-77
2022/11/15 01:29:48;;;;;;;0.85;0.85;;;;;;;;;;5093995;28;20501;-78
2022/11/15 01:32:14;;;;;;;0.90;0.90;;;;;;;;;;5091899;28;20044;-76
2022/11/15 01:34:40;;;;;;;0.80;0.80;;;;;;;;;;5086085;28;20024;-77
2022/11/15 01:37:06;;;;;;;1.70;1.38;;;;;;;;;;5093624;28;20020;-77
2022/11/15 01:39:32;;;;;;;2.58;1.60;;;;;;;;;;5102658;28;20028;-76
2022/11/15 01:41:59;;;;;;;3.28;1.45;;;;;;;;;;5087473;28;20510;-77
2022/11/15 01:44:31;;;;;;;5.60;1.52;;;;;;;;;;5085443;28;20160;-76
2022/11/15 01:46:57;;;;;;;1.73;1.50;;;;;;;;;;5090073;28;20032;-77
2022/11/15 01:49:24;;;;;;;4.13;1.67;;;;;;;;;;5090325;28;20028;-76
2022/11/15 01:51:50;;;;;;;2.28;1.60;;;;;;;;;;5092048;28;20020;-76
2022/11/15 01:54:17;;;;;;;3.53;1.70;;;;;;;;;;5074768;28;20081;-78
2022/11/15 01:56:46;;;;;;;3.05;1.95;;;;;;;;;;5092305;28;20024;-78
2022/11/15 01:59:12;;;;;;;3.58;2.00;;;;;;;;;;5092522;28;20027;-76
2022/11/15 02:01:38;;;;;;;2.38;1.50;;;;;;;;;;5094840;28;20027;-78
2022/11/15 02:04:09;;;;;;;4.78;2.15;;;;;;;;;;5092968;28;20479;-77
2022/11/15 02:06:36;;;;;;;6.97;1.80;;;;;;;;;;5091859;28;20035;-76
2022/11/15 02:09:02;;;;;;;5.97;2.22;;;;;;;;;;5086854;28;20035;-76
2022/11/15 02:11:28;;;;;;;5.78;3.00;;;;;;;;;;5090742;28;20020;-75
2022/11/15 02:13:55;;;;;;;6.22;2.08;;;;;;;;;;5087060;28;20027;-79
2022/11/15 02:16:27;;;;;;;6.18;2.10;;;;;;;;;;5089439;28;20030;-78
2022/11/15 02:19:06;;;;;;;5.40;2.95;;;;;;;;;;5088743;28;20016;-78
2022/11/15 02:21:44;;;;;;;4.90;1.60;;;;;;;;;;5071741;28;20024;-79
2022/11/15 02:24:29;;;;;;;6.72;1.90;;;;;;;;;;5070404;28;20039;-78
2022/11/15 02:26:56;;;;;;;5.83;2.43;;;;;;;;;;5092475;28;20030;-77
2022/11/15 02:29:22;;;;;;;6.88;1.90;;;;;;;;;;5092738;28;20020;-78
2022/11/15 02:31:48;;;;;;;7.15;1.80;;;;;;;;;;5093174;28;20062;-77
2022/11/15 02:34:22;;;;;;;8.90;1.98;;;;;;;;;;5090559;28;20032;-78
2022/11/15 02:36:53;;;;;;;5.70;1.90;;;;;;;;;;5089769;28;20031;-79
2022/11/15 02:39:42;;;;;;;6.60;3.08;;;;;;;;;;5090358;28;20035;-78
2022/11/15 02:43:56;;;;;;;7.32;2.20;;;;;;;;;;5076705;28;20063;-78
2022/11/15 02:44:58;;;;;;;5.85;1.90;;;;;;;;;;5092268;28;20031;-78
2022/11/15 02:47:29;;;;;;;4.03;2.40;;;;;;;;;;5086981;28;20070;-78
2022/11/15 02:49:59;;;;;;;8.55;2.45;;;;;;;;;;5092410;28;20024;-77
2022/11/15 02:52:28;;;;;;;5.78;2.10;;;;;;;;;;5088277;28;20024;-77
2022/11/15 02:54:55;;;;;;;8.50;2.72;;;;;;;;;;5086921;28;20050;-78
2022/11/15 02:57:27;;;;;;;4.90;3.05;;;;;;;;;;5087504;28;20035;-78
2022/11/15 03:00:08;;;;;;;4.35;1.70;;;;;;;;;;5087250;28;20124;-79
2022/11/15 03:02:37;;;;;;;5.30;2.17;;;;;;;;;;5088906;28;20030;-78
2022/11/15 03:05:22;;;;;;;6.32;2.17;;;;;;;;;;5087218;28;20064;-78
2022/11/15 03:07:48;;;;;;;6.70;2.00;;;;;;;;;;5088205;28;20036;-79
2022/11/15 03:10:23;;;;;;;8.30;2.10;;;;;;;;;;5072924;28;20085;-79
2022/11/15 03:12:54;;;;;;;4.53;1.80;;;;;;;;;;5091186;28;20031;-78
2022/11/15 03:15:27;;;;;;;2.83;1.73;;;;;;;;;;5090772;28;20478;-78
2022/11/15 03:18:01;;;;;;;3.60;2.65;;;;;;;;;;5090970;28;20064;-77
2022/11/15 03:20:27;;;;;;;3.95;1.90;;;;;;;;;;5099377;28;20069;-78
2022/11/15 03:22:55;;;;;;;6.53;3.10;;;;;;;;;;5091661;28;20039;-79
2022/11/15 03:25:23;;;;;;;6.82;2.33;;;;;;;;;;5093647;28;20036;-78
2022/11/15 03:27:52;;;;;;;12.18;2.47;;;;;;;;;;5092921;28;20032;-78
2022/11/15 03:30:19;;;;;;;10.65;2.15;;;;;;;;;;5089819;28;20024;-78
2022/11/15 03:32:47;;;;;;;6.88;2.30;;;;;;;;;;5090900;28;20085;-78
2022/11/15 03:35:28;;;;;;;7.05;2.60;;;;;;;;;;5084313;28;20370;-78
2022/11/15 03:38:20;;;;;;;6.05;2.28;;;;;;;;;;5085562;28;20471;-78
2022/11/15 03:40:50;;;;;;;6.88;2.30;;;;;;;;;;5068777;28;20084;-77
2022/11/15 03:43:22;;;;;;;5.72;2.60;;;;;;;;;;5071262;28;20128;-78
2022/11/15 03:45:55;;;;;;;5.30;2.75;;;;;;;;;;5088229;28;20024;-78
2022/11/15 03:48:23;;;;;;;6.88;2.40;;;;;;;;;;5069054;28;20039;-78
2022/11/15 03:50:49;;;;;;;9.27;2.08;;;;;;;;;;5083197;28;20088;-78
2022/11/15 03:53:16;;;;;;;5.47;2.00;;;;;;;;;;5087548;28;20016;-77
2022/11/15 03:55:42;;;;;;;5.13;2.25;;;;;;;;;;5069727;28;20485;-78
2022/11/15 03:58:08;;;;;;;5.65;2.30;;;;;;;;;;5073378;28;20032;-78
2022/11/15 04:00:34;;;;;;;6.70;2.00;;;;;;;;;;5094007;28;20039;-78
2022/11/15 04:03:00;;;;;;;13.15;3.08;;;;;;;;;;5086457;28;20039;-78
2022/11/15 04:05:26;;;;;;;7.20;2.05;;;;;;;;;;5086704;28;20032;-78
2022/11/15 04:07:52;;;;;;;10.88;2.65;;;;;;;;;;5089065;28;20032;-79
2022/11/15 04:10:18;;;;;;;6.78;2.25;;;;;;;;;;5089879;28;20608;-79
2022/11/15 04:12:49;;;;;;;10.27;2.80;;;;;;;;;;5086953;28;20027;-79
2022/11/15 04:15:18;;;;;;;7.57;2.03;;;;;;;;;;5082524;28;20053;-78
2022/11/15 04:17:46;;;;;;;3.92;2.35;;;;;;;;;;5089548;28;20058;-78
2022/11/15 04:25:45;;;;;;;10.52;2.35;;;;;;;;;;5087302;28;20043;-78
2022/11/15 04:28:14;;;;;;;7.43;2.42;;;;;;;;;;5066311;28;20071;-77
2022/11/15 04:30:40;;;;;;;7.07;2.15;;;;;;;;;;5086255;28;20119;-78
2022/11/15 04:33:06;;;;;;;10.80;2.42;;;;;;;;;;5089148;28;20107;-78
2022/11/15 04:35:35;;;;;;;7.63;2.25;;;;;;;;;;5093552;28;20024;-77
2022/11/15 04:38:03;;;;;;;7.07;3.10;;;;;;;;;;5093655;28;20030;-78
2022/11/15 04:40:29;;;;;;;8.45;2.78;;;;;;;;;;5093699;28;20506;-77
2022/11/15 04:42:55;;;;;;;6.15;2.03;;;;;;;;;;5083994;28;20050;-77
2022/11/15 04:45:21;;;;;;;6.60;2.95;;;;;;;;;;5075652;28;20440;-77
2022/11/15 04:47:47;;;;;;;8.60;2.58;;;;;;;;;;5069926;28;20028;-78
2022/11/15 04:50:14;;;;;;;6.70;2.72;;;;;;;;;;5088062;28;20219;-78
2022/11/15 04:52:41;;;;;;;15.38;3.35;;;;;;;;;;5087663;28;20043;-79
2022/11/15 04:55:08;;;;;;;12.35;2.67;;;;;;;;;;5086306;28;20153;-78
2022/11/15 04:57:34;;;;;;;9.25;2.50;;;;;;;;;;5085273;28;20127;-77
2022/11/15 05:00:00;;;;;;;7.57;2.30;;;;;;;;;;5091849;28;20027;-78
2022/11/15 05:04:18;;;;;;;10.55;2.92;;;;;;;;;;5096405;28;20392;-79
2022/11/15 05:05:12;;;;;;;9.00;3.28;;;;;;;;;;5092389;28;20043;-78
2022/11/15 05:07:38;;;;;;;8.90;2.38;;;;;;;;;;5095443;28;20032;-78
2022/11/15 05:10:04;;;;;;;11.50;3.25;;;;;;;;;;5091194;28;20113;-78
2022/11/15 05:12:30;;;;;;;9.45;3.05;;;;;;;;;;5101981;28;20032;-78
2022/11/15 05:14:56;;;;;;;10.55;2.95;;;;;;;;;;5094825;28;20016;-78
2022/11/15 05:17:22;;;;;;;7.38;2.67;;;;;;;;;;5092340;28;20119;-78
2022/11/15 05:19:48;;;;;;;9.02;2.55;;;;;;;;;;5092545;28;20512;-78
2022/11/15 05:22:15;;;;;;;13.77;2.70;;;;;;;;;;5092333;28;20507;-78
2022/11/15 05:24:41;;;;;;;5.03;2.10;;;;;;;;;;5093071;28;20307;-78
2022/11/15 05:27:07;;;;;;;7.93;3.00;;;;;;;;;;5093452;28;20088;-77
2022/11/15 05:29:33;;;;;;;29.77;3.22;;;;;;;;;;5071090;28;20024;-78
2022/11/15 05:31:59;;;;;;;3.00;2.20;;;;;;;;;;5087085;28;20040;-78
2022/11/15 05:34:26;;;;;;;7.22;3.03;;;;;;;;;;5092493;28;20020;-77
2022/11/15 05:36:52;;;;;;;15.85;3.00;;;;;;;;;;5093225;28;20621;-78
2022/11/15 05:39:18;;;;;;;15.30;3.08;;;;;;;;;;5074253;28;20127;-78
2022/11/15 05:41:50;;;;;;;11.52;3.97;;;;;;;;;;5086026;28;20069;-78
2022/11/15 05:44:18;;;;;;;8.82;3.03;;;;;;;;;;5090247;28;20083;-78
2022/11/15 05:46:45;;;;;;;6.80;2.67;;;;;;;;;;5091387;28;20028;-78
2022/11/15 05:49:12;;;;;;;10.25;3.35;;;;;;;;;;5091333;28;20043;-77
2022/11/15 05:51:39;;;;;;;14.68;4.25;;;;;;;;;;5071083;28;20088;-78
2022/11/15 05:54:05;;;;;;;12.07;3.78;;;;;;;;;;5072548;28;20592;-79
2022/11/15 05:56:32;;;;;;;11.07;3.38;;;;;;;;;;5066741;28;20035;-78
2022/11/15 05:58:58;;;;;;;10.57;3.15;;;;;;;;;;5088197;28;20046;-78
2022/11/15 06:01:27;;;;;;;8.80;2.92;;;;;;;;;;5087513;28;20028;-78
2022/11/15 06:03:53;;;;;;;7.88;2.85;;;;;;;;;;5070689;28;20032;-78
2022/11/15 06:06:19;;;;;;;13.70;3.70;;;;;;;;;;5086977;28;20060;-78
2022/11/15 06:08:45;;;;;;;9.27;3.20;;;;;;;;;;5083896;28;20028;-77
2022/11/15 06:11:11;;;;;;;5.78;2.72;;;;;;;;;;5087714;28;20516;-78
2022/11/15 06:13:37;;;;;;;9.68;2.70;;;;;;;;;;5086312;28;20059;-78
2022/11/15 06:16:03;;;;;;;7.18;3.75;;;;;;;;;;5084214;28;20474;-79
2022/11/15 06:18:32;;;;;;;15.15;4.38;;;;;;;;;;5068697;28;20033;-78
2022/11/15 06:21:01;;;;;;;10.35;3.70;;;;;;;;;;5087203;28;20035;-78
2022/11/15 06:23:27;;;;;;;9.60;3.15;;;;;;;;;;5088713;28;20465;-78
2022/11/15 06:25:53;;;;;;;12.30;3.78;;;;;;;;;;5085808;28;20024;-77
2022/11/15 06:28:19;;;;;;;9.43;3.33;;;;;;;;;;5089399;28;20374;-78
2022/11/15 06:30:46;;;;;;;12.27;3.33;;;;;;;;;;5071847;28;20595;-78
2022/11/15 06:33:12;;;;;;;9.60;3.35;;;;;;;;;;5089264;28;20094;-78
2022/11/15 06:35:38;;;;;;;13.90;3.33;;;;;;;;;;5081231;28;20021;-78
2022/11/15 06:38:09;;;;;;;7.63;2.38;;;;;;;;;;5086104;28;20016;-78
2022/11/15 06:40:36;;;;;;;11.23;2.97;;;;;;;;;;5092134;28;20091;-78
2022/11/15 06:43:02;;;;;;;8.40;2.65;;;;;;;;;;5067493;28;20360;-78
2022/11/15 06:45:28;;;;;;;12.65;3.38;;;;;;;;;;5088322;28;20432;-78
2022/11/15 06:47:54;;;;;;;10.13;2.95;;;;;;;;;;5091154;28;20051;-78
2022/11/15 06:50:20;;;;;;;12.68;4.18;;;;;;;;;;5088222;28;20490;-78
2022/11/15 06:52:46;;;;;;;11.70;3.40;;;;;;;;;;5090832;28;20050;-79
2022/11/15 06:55:12;;;;;;;9.70;3.90;;;;;;;;;;5085500;28;20020;-78
2022/11/15 06:57:46;;;;;;;10.70;2.90;;;;;;;;;;5089291;28;20020;-78
2022/11/15 07:00:12;;;;;;;8.68;3.00;;;;;;;;;;5074477;28;20477;-79
2022/11/15 07:02:38;;;;;;;9.20;2.80;;;;;;;;;;5071864;28;20035;-78
2022/11/15 07:05:05;;;;;;;6.78;2.50;;;;;;;;;;5086564;28;20033;-78
2022/11/15 07:07:31;;;;;;;9.50;2.95;;;;;;;;;;5090941;28;20024;-78
2022/11/15 07:09:57;;;;;;;6.47;2.40;;;;;;;;;;5084787;28;20084;-78
2022/11/15 07:12:23;;;;;;;13.55;3.50;;;;;;;;;;5084637;28;20093;-78
2022/11/15 07:14:49;;;;;;;8.10;2.90;;;;;;;;;;5088359;28;20032;-78
2022/11/15 07:17:15;;;;;;;11.23;2.85;;;;;;;;;;5089542;28;20035;-78
2022/11/15 07:19:41;;;;;;;6.10;2.35;;;;;;;;;;5090553;28;20040;-78
2022/11/15 07:22:07;;;;;;;9.25;3.35;;;;;;;;;;5091914;28;20073;-78
2022/11/15 07:24:33;;;;;;;8.65;2.97;;;;;;;;;;5088036;28;20126;-78
2022/11/15 07:26:59;;;;;;;10.88;3.03;;;;;;;;;;5096387;28;20493;-78
2022/11/15 07:29:25;;;;;;;5.63;2.90;;;;;;;;;;5076015;28;20031;-78
2022/11/15 07:31:51;;;;;;;9.15;2.92;;;;;;;;;;5096127;28;20055;-78
2022/11/15 07:34:17;;;;;;;13.63;3.42;;;;;;;;;;5077062;28;20032;-78
2022/11/15 07:36:44;;;;;;;18.05;4.53;;;;;;;;;;5096860;28;20028;-78
2022/11/15 07:39:11;;;;;;;5.28;2.63;;;;;;;;;;5089978;28;20035;-79
2022/11/15 07:41:38;;;;;;;8.20;2.95;;;;;;;;;;5074472;28;20533;-79
2022/11/15 07:44:05;;;;;;;15.88;3.05;;;;;;;;;;5085764;28;20024;-79
2022/11/15 07:46:31;;;;;;;11.30;2.38;;;;;;;;;;5087404;28;20012;-78
2022/11/15 07:48:57;;;;;;;12.48;3.08;;;;;;;;;;5071628;28;20028;-79
2022/11/15 07:51:24;;;;;;;7.45;2.67;;;;;;;;;;5092603;28;20028;-78
2022/11/15 07:53:50;;;;;;;9.20;3.53;;;;;;;;;;5088247;28;20058;-78
2022/11/15 07:56:16;;;;;;;10.57;3.13;;;;;;;;;;5074506;28;20024;-79
2022/11/15 07:58:42;;;;;;;9.50;3.45;;;;;;;;;;5075055;28;20508;-79
2022/11/15 08:01:10;;;;;;;12.23;2.80;;;;;;;;;;5089812;28;20036;-78
2022/11/15 08:03:36;;;;;;;8.70;2.53;;;;;;;;;;5087038;28;20020;-78
2022/11/15 08:06:02;;;;;;;7.55;2.80;;;;;;;;;;5084279;28;20103;-79
2022/11/15 08:08:28;;;;;;;6.57;2.90;;;;;;;;;;5087462;28;20119;-77
2022/11/15 08:10:55;;;;;;;11.10;4.15;;;;;;;;;;5097489;28;20066;-79
2022/11/15 08:13:30;;;;;;;9.10;3.22;;;;;;;;;;5096310;28;20032;-79
2022/11/15 08:15:56;;;;;;;;;;;;;;;;;;5092557;28;20020;-78
2022/11/15 08:18:22;;;;;;;10.73;3.10;;;;;;;;;;5089585;28;20281;-79
2022/11/15 08:20:48;;;;;;;8.25;3.28;;;;;;;;;;5091860;28;20035;-78
2022/11/15 08:23:14;;;;;;;7.93;3.22;;;;;;;;;;5094289;28;20486;-79
2022/11/15 08:25:40;;;;;;;5.20;3.20;;;;;;;;;;5075591;28;20066;-78
2022/11/15 08:28:07;;;;;;;12.55;2.70;;;;;;;;;;5091842;28;20063;-78
2022/11/15 08:30:42;;;;;;;9.88;3.60;;;;;;;;;;5097296;28;20484;-78
2022/11/15 08:33:10;;;;;;;5.53;2.85;;;;;;;;;;5094116;28;20036;-78
2022/11/15 08:35:36;;;;;;;10.75;3.70;;;;;;;;;;5090824;28;20038;-78
2022/11/15 08:38:03;;;;;;;15.60;3.63;;;;;;;;;;5091405;28;20137;-78
2022/11/15 08:40:29;;;;;;;8.73;3.00;;;;;;;;;;5092347;28;20512;-78
2022/11/15 08:42:55;;;;;;;11.18;3.10;;;;;;;;;;5094152;28;20053;-78
2022/11/15 08:45:21;;;;;;;12.93;3.25;;;;;;;;;;5075681;28;20028;-78
2022/11/15 08:47:47;;;;;;;9.93;2.95;;;;;;;;;;5093960;28;20355;-79
2022/11/15 08:50:14;;;;;;;6.40;3.00;;;;;;;;;;5091619;28;20035;-78
2022/11/15 08:52:40;;;;;;;8.82;2.90;;;;;;;;;;5076791;28;20082;-78
2022/11/15 08:55:06;;;;;;;7.25;2.80;;;;;;;;;;5093636;28;20078;-79
2022/11/15 08:57:32;;;;;;;8.77;2.70;;;;;;;;;;5093454;28;20026;-79
2022/11/15 08:59:58;;;;;;;7.75;3.08;;;;;;;;;;5088345;28;20048;-79
2022/11/15 09:02:25;;;;;;;8.60;3.70;;;;;;;;;;5089323;28;20645;-79
2022/11/15 09:04:51;;;;;;;10.32;3.22;;;;;;;;;;5097630;28;20043;-78
2022/11/15 09:07:17;;;;;;;11.02;2.72;;;;;;;;;;5091872;28;20401;-78
2022/11/15 09:09:43;;;;;;;7.15;3.50;;;;;;;;;;5095201;28;20028;-79
2022/11/15 09:12:09;;;;;;;9.50;3.80;;;;;;;;;;5095109;28;20032;-78
2022/11/15 09:14:35;;;;;;;11.93;2.88;;;;;;;;;;5077137;28;20021;-78
2022/11/15 09:17:02;;;;;;;7.03;2.65;;;;;;;;;;5097538;28;20078;-79
2022/11/15 09:19:28;;;;;;;6.75;2.75;;;;;;;;;;5081022;28;20034;-78
2022/11/15 09:21:54;;;;;;;7.63;3.67;;;;;;;;;;5092901;28;20452;-79
2022/11/15 09:24:20;;;;;;;11.10;3.65;;;;;;;;;;5095519;28;20023;-78
2022/11/15 09:26:46;;;;;;;7.97;2.72;;;;;;;;;;5084908;28;20035;-79
2022/11/15 09:29:13;;;;;;;6.68;2.72;;;;;;;;;;5084821;28;20031;-77
2022/11/15 09:31:39;;;;;;;13.75;4.22;;;;;;;;;;5097012;28;20032;-77
2022/11/15 09:34:05;;;;;;;6.07;2.50;;;;;;;;;;5100350;28;20026;-78
2022/11/15 09:36:31;;;;;;;8.23;3.28;;;;;;;;;;5086003;28;20055;-79
2022/11/15 09:39:00;;;;;;;9.43;3.33;;;;;;;;;;5101802;28;20024;-78
2022/11/15 09:41:26;;;;;;;10.52;2.65;;;;;;;;;;5100766;28;20057;-79
2022/11/15 09:43:58;;;;;;;11.38;2.97;;;;;;;;;;5084514;28;20123;-77
2022/11/15 09:46:24;;;;;;;9.45;4.35;;;;;;;;;;5095839;28;20039;-78
2022/11/15 09:49:09;;;;;;;8.07;2.47;;;;;;;;;;5074793;28;20039;-78
2022/11/15 09:51:46;;;;;;;7.60;3.55;;;;;;;;;;5072674;28;20374;-79
2022/11/15 09:54:17;;;;;;;10.70;2.60;;;;;;;;;;5095701;28;20025;-78
2022/11/15 09:56:44;;;;;;;9.10;2.38;;;;;;;;;;5097645;28;20023;-79
2022/11/15 09:59:13;;;;;;;7.60;3.22;;;;;;;;;;5093935;28;20039;-78
2022/11/15 10:01:45;;;;;;;6.60;3.28;;;;;;;;;;5094076;28;20043;-80
2022/11/15 10:04:11;;;;;;;6.63;3.20;;;;;;;;;;5079537;28;20095;-79
2022/11/15 10:06:41;;;;;;;14.10;3.03;;;;;;;;;;5100653;28;20035;-78
2022/11/15 10:09:15;;;;;;;12.27;3.20;;;;;;;;;;5097252;28;20505;-78
2022/11/15 10:11:42;;;;;;;6.63;2.72;;;;;;;;;;5087444;28;20363;-79
2022/11/15 10:14:11;;;;;;;7.85;3.22;;;;;;;;;;5089602;28;20020;-78
2022/11/15 10:16:59;;;;;;;6.90;2.40;;;;;;;;;;5075293;28;20024;-79
2022/11/15 10:19:43;;;;;;;11.07;2.42;;;;;;;;;;5063867;28;20109;-79
2022/11/15 10:22:09;;;;;;;9.55;2.95;;;;;;;;;;5097519;28;20032;-78
2022/11/15 10:24:37;;;;;;;6.47;3.03;;;;;;;;;;5090110;28;20085;-77
2022/11/15 10:27:10;;;;;;;10.40;3.08;;;;;;;;;;5096886;28;20023;-78
2022/11/15 10:29:36;;;;;;;9.40;2.67;;;;;;;;;;5094021;28;20107;-76
2022/11/15 10:32:02;;;;;;;11.32;3.38;;;;;;;;;;5088051;28;20048;-77
2022/11/15 10:34:28;;;;;;;6.30;2.78;;;;;;;;;;5086786;28;20035;-78
2022/11/15 10:36:58;;;;;;;10.20;2.80;;;;;;;;;;5088711;28;20032;-77
2022/11/15 10:39:25;;;;;;;10.85;3.25;;;;;;;;;;5086088;28;20039;-77
2022/11/15 10:41:51;;;;;;;10.35;3.30;;;;;;;;;;5067377;28;20027;-77
2022/11/15 10:44:20;;;;;;;10.90;3.15;;;;;;;;;;5093729;28;20028;-77
2022/11/15 10:47:06;;;;;;;8.82;2.60;;;;;;;;;;5093038;28;20020;-78
2022/11/15 10:49:33;;;;;;;6.75;2.42;;;;;;;;;;5086823;28;20117;-77
2022/11/15 10:52:01;;;;;;;9.13;3.25;;;;;;;;;;5090441;28;20028;-77
2022/11/15 10:54:34;;;;;;;11.85;3.22;;;;;;;;;;5086555;28;20028;-77
2022/11/15 10:57:01;;;;;;;10.18;3.35;;;;;;;;;;5085830;28;20112;-79
2022/11/15 10:59:29;;;;;;;9.88;6.40;;;;;;;;;;5091359;28;20042;-78
2022/11/15 11:01:56;;;;;;;12.57;7.70;;;;;;;;;;5071757;28;20024;-77
2022/11/15 11:04:22;;;;;;;12.50;5.25;;;;;;;;;;5088416;28;20061;-78
2022/11/15 11:06:49;;;;;;;8.70;5.70;;;;;;;;;;5086340;28;20504;-77
2022/11/15 11:09:29;;;;;;;10.40;3.42;;;;;;;;;;5092913;28;20047;-77
2022/11/15 11:11:59;;;;;;;9.20;2.85;;;;;;;;;;5091141;28;20274;-77
2022/11/15 11:14:31;;;;;;;11.07;4.03;;;;;;;;;;5079545;28;20032;-77
2022/11/15 11:16:57;;;;;;;5.03;2.42;;;;;;;;;;5087133;28;20020;-78
2022/11/15 11:19:26;;;;;;;8.85;3.15;;;;;;;;;;5090513;28;20028;-78
2022/11/15 11:22:02;;;;;;;7.32;2.45;;;;;;;;;;5085901;28;20020;-78
2022/11/15 11:24:28;;;;;;;10.00;2.42;;;;;;;;;;5094157;28;20024;-78
2022/11/15 11:27:00;;;;;;;8.00;3.08;;;;;;;;;;5090575;28;20088;-77
2022/11/15 11:29:33;;;;;;;9.88;3.03;;;;;;;;;;5084324;28;20038;-77
2022/11/15 11:32:00;;;;;;;6.53;2.42;;;;;;;;;;5083856;28;20052;-77
2022/11/15 11:34:42;;;;;;;7.80;3.05;;;;;;;;;;5070848;28;20024;-77
2022/11/15 11:37:20;;;;;;;7.30;2.78;;;;;;;;;;5085094;28;20381;-77
2022/11/15 11:40:00;;;;;;;10.18;2.95;;;;;;;;;;5087326;28;20587;-77
2022/11/15 11:42:27;;;;;;;7.50;3.35;;;;;;;;;;5089569;28;20473;-78
2022/11/15 11:45:12;;;;;;;13.02;3.17;;;;;;;;;;5083330;28;20016;-77
2022/11/15 11:47:43;;;;;;;7.07;2.40;;;;;;;;;;5084003;28;20073;-77
2022/11/15 11:50:19;;;;;;;6.15;2.60;;;;;;;;;;5086440;28;20405;-78
2022/11/15 11:52:54;;;;;;;6.28;2.83;;;;;;;;;;5085721;28;20417;-77
2022/11/15 11:55:25;;;;;;;6.40;2.50;;;;;;;;;;5082910;28;20028;-77
2022/11/15 11:58:03;;;;;;;10.23;3.75;;;;;;;;;;5088925;28;20554;-78
2022/11/15 12:00:34;;;;;;;8.40;2.42;;;;;;;;;;5087079;28;20048;-77
2022/11/15 12:03:19;;;;;;;5.50;2.40;;;;;;;;;;5081535;28;20035;-76
2022/11/15 12:05:47;;;;;;;6.32;2.97;;;;;;;;;;5088148;28;20036;-77
2022/11/15 12:08:32;;;;;;;5.97;3.13;;;;;;;;;;5087919;28;20024;-79
2022/11/15 12:11:01;;;;;;;5.13;2.53;;;;;;;;;;5088039;28;20028;-78
2022/11/15 12:13:29;;;;;;;5.65;2.53;;;;;;;;;;5083373;28;20027;-77
2022/11/15 12:16:14;;;;;;;5.97;2.50;;;;;;;;;;5093050;28;20025;-78
2022/11/15 12:18:44;;;;;;;6.78;2.67;;;;;;;;;;5081343;28;20035;-78
2022/11/15 12:21:25;;;;;;;4.20;2.33;;;;;;;;;;5086374;28;20158;-77
2022/11/15 12:23:54;;;;;;;7.05;2.72;;;;;;;;;;5085175;28;20027;-78
2022/11/15 12:26:23;;;;;;;7.55;2.97;;;;;;;;;;5089658;28;20030;-77
2022/11/15 12:28:58;;;;;;;9.88;3.80;;;;;;;;;;5085191;28;20028;-78
2022/11/15 12:31:24;;;;;;;5.03;2.47;;;;;;;;;;5087622;28;20051;-78
2022/11/15 12:33:55;;;;;;;9.95;2.65;;;;;;;;;;5093219;28;20187;-78
2022/11/15 12:36:21;;;;;;;6.28;2.60;;;;;;;;;;5087001;28;20016;-79
2022/11/15 12:39:02;;;;;;;9.05;2.72;;;;;;;;;;5088037;28;20381;-78
2022/11/15 12:41:29;;;;;;;6.45;2.40;;;;;;;;;;5072688;28;20062;-77
2022/11/15 12:43:56;;;;;;;6.03;2.65;;;;;;;;;;5086630;28;20028;-78
2022/11/15 12:46:42;;;;;;;8.65;2.63;;;;;;;;;;5089837;28;20110;-79
2022/11/15 12:49:28;;;;;;;4.35;2.20;;;;;;;;;;5085172;28;20055;-79
2022/11/15 12:51:57;;;;;;;6.80;2.33;;;;;;;;;;5069742;28;20190;-78
2022/11/15 12:54:23;;;;;;;4.85;2.30;;;;;;;;;;5085875;28;20077;-78
2022/11/15 12:57:08;;;;;;;5.90;2.60;;;;;;;;;;5086662;28;20170;-79
2022/11/15 12:59:54;;;;;;;5.75;2.83;;;;;;;;;;5072526;28;20531;-78
2022/11/15 13:02:28;;;;;;;5.30;2.63;;;;;;;;;;5086481;28;20242;-78
2022/11/15 13:04:56;;;;;;;6.43;2.30;;;;;;;;;;5089802;28;20024;-78
2022/11/15 13:07:48;;;;;;;5.55;2.30;;;;;;;;;;5090030;28;20089;-78
2022/11/15 13:10:14;;;;;;;3.78;2.50;;;;;;;;;;5084807;28;20048;-77
2022/11/15 13:12:43;;;;;;;6.95;2.03;;;;;;;;;;5091507;28;20024;-78
2022/11/15 13:15:12;;;;;;;4.03;2.15;;;;;;;;;;5090155;28;20386;-78
2022/11/15 13:17:40;;;;;;;4.85;2.05;;;;;;;;;;5091752;28;20169;-78
2022/11/15 13:20:15;;;;;;;5.20;2.42;;;;;;;;;;5100446;28;20459;-78
2022/11/15 13:22:52;;;;;;;5.43;2.60;;;;;;;;;;5097745;28;20469;-78
2022/11/15 13:25:21;;;;;;;4.72;2.72;;;;;;;;;;5087733;28;20020;-77
2022/11/15 13:27:49;;;;;;;7.50;2.30;;;;;;;;;;5089800;28;20077;-78
2022/11/15 13:30:19;;;;;;;6.05;2.65;;;;;;;;;;5089131;28;20088;-77
2022/11/15 13:32:45;;;;;;;6.13;2.25;;;;;;;;;;5103924;28;20023;-77
2022/11/15 13:35:18;;;;;;;3.42;2.00;;;;;;;;;;5099066;28;20024;-78
2022/11/15 13:37:45;;;;;;;10.57;2.65;;;;;;;;;;5087608;28;20016;-78
2022/11/15 13:40:19;;;;;;;4.93;2.55;;;;;;;;;;5071738;28;20570;-78
2022/11/15 13:42:45;;;;;;;6.53;2.78;;;;;;;;;;5075872;28;20090;-77
2022/11/15 13:45:14;;;;;;;5.32;2.00;;;;;;;;;;5087724;28;20106;-75
2022/11/15 13:47:40;;;;;;;6.50;1.98;;;;;;;;;;5097162;28;20051;-77
2022/11/15 13:50:07;;;;;;;5.53;1.95;;;;;;;;;;5090364;28;20082;-78
2022/11/15 13:52:36;;;;;;;4.90;2.20;;;;;;;;;;5100707;28;20024;-79
2022/11/15 13:55:07;;;;;;;6.28;2.08;;;;;;;;;;5093640;28;20048;-79
2022/11/15 13:57:40;;;;;;;6.13;2.83;;;;;;;;;;5093173;28;20465;-78
2022/11/15 14:00:23;;;;;;;6.93;2.88;;;;;;;;;;5095513;28;20093;-79
2022/11/15 14:02:50;;;;;;;6.55;2.30;;;;;;;;;;5081080;28;20080;-78
2022/11/15 14:05:17;;;;;;;6.20;2.10;;;;;;;;;;5085711;28;20081;-75
2022/11/15 14:07:58;;;;;;;7.75;2.28;;;;;;;;;;5090577;28;20049;-76
2022/11/15 14:10:31;;;;;;;6.72;2.60;;;;;;;;;;5089148;28;20401;-76
2022/11/15 14:12:57;;;;;;;8.43;2.63;;;;;;;;;;5093446;28;20381;-76
2022/11/15 14:15:32;;;;;;;5.78;2.05;;;;;;;;;;5090404;28;20107;-77
2022/11/15 14:17:58;;;;;;;6.38;2.38;;;;;;;;;;5088622;28;20056;-76
2022/11/15 14:20:24;;;;;;;5.85;2.45;;;;;;;;;;5088606;28;20035;-77
2022/11/15 14:22:57;;;;;;;7.82;2.30;;;;;;;;;;5091548;28;20380;-76
2022/11/15 14:25:27;;;;;;;6.13;2.40;;;;;;;;;;5085495;28;20027;-74
2022/11/15 14:28:08;;;;;;;9.40;2.92;;;;;;;;;;5090399;28;20047;-75
2022/11/15 14:30:34;;;;;;;6.00;3.33;;;;;;;;;;5095686;28;20044;-75
2022/11/15 14:33:01;;;;;;;9.60;3.15;;;;;;;;;;5072768;28;20199;-76
2022/11/15 14:35:27;;;;;;;5.30;2.92;;;;;;;;;;5082561;28;20099;-75
2022/11/15 14:37:53;;;;;;;7.63;2.22;;;;;;;;;;5088565;28;20026;-76
2022/11/15 14:40:20;;;;;;;6.88;2.55;;;;;;;;;;5092043;28;20050;-76
2022/11/15 14:42:48;;;;;;;9.38;3.00;;;;;;;;;;5076179;28;20027;-75
2022/11/15 14:45:19;;;;;;;5.47;2.55;;;;;;;;;;5085754;28;20039;-78
2022/11/15 14:47:45;;;;;;;12.77;3.05;;;;;;;;;;5100771;28;20039;-77
2022/11/15 14:50:15;;;;;;;6.15;3.08;;;;;;;;;;5070212;28;20105;-78
2022/11/15 14:52:42;;;;;;;4.97;2.67;;;;;;;;;;5094919;28;20035;-78
2022/11/15 14:55:11;;;;;;;5.45;3.17;;;;;;;;;;5094577;28;20080;-79
2022/11/15 14:57:37;;;;;;;8.68;3.83;;;;;;;;;;5086965;28;20028;-79